Latest Coastal Weather Observations for Wynyard

IDV60701

Issued at 4:02 pm EST Monday 1 May 2017 (issued every 10 minutes, with the page automatically refreshed every 10 minutes)

About coastal observations | Map of coastal stations | Coastal observations for VIC | Marine services | Other Formats
Station Details ID: 091107 Name: WYNYARD AIRPORT Lat: -41.00 Lon: 145.73 Height: 12.0 m
Data from the previous 72 hours. | See also: Recent months at Wynyard
Date/Time
EST
Temp
°C
Wind Pressure Rain since
9am
mm
Weather Cloud Vis
km
Sea
Height
m
Swell
Dir  Spd
kts
Gust
kts
hPa Trend Height
m
Period
s
Dir
01/03:30pm 13.9 W 11 14 1007.8 - 0.4 - Cloudy 10 - - - -
01/03:00pm 14.0 WNW 12 17 1007.8 - 0.4 - Cloudy 10 - - - -
01/02:30pm 13.7 WNW 11 16 1007.7 - 0.4 - Partly cloudy 10 - - - -
01/02:00pm 13.7 W 9 15 1007.6 - 0.4 - Cloudy 10 - - - -
01/01:30pm 12.9 W 16 22 1007.7 - 0.4 - Partly cloudy 10 - - - -
01/01:17pm 13.0 W 16 26 1007.7 - 0.4 - Partly cloudy 10 - - - -
01/01:13pm 13.0 WSW 19 27 1007.6 - 0.4 - Partly cloudy 10 - - - -
01/01:04pm 12.8 WSW 17 27 1007.5 - 0.4 - Partly cloudy 6 - - - -
01/01:00pm 12.9 WSW 15 22 1007.5 - 0.4 - Partly cloudy 5 - - - -
01/12:38pm 14.4 WNW 17 23 1007.2 - 0.2 - Partly cloudy 5 - - - -
01/12:30pm 15.0 WNW 16 26 1007.1 - 0.2 - Partly cloudy 10 - - - -
01/12:25pm 15.1 NW 15 26 1007.0 - 0.2 - Partly cloudy 10 - - - -
01/12:02pm 14.6 NW 18 28 1007.6 - 0.2 - Partly cloudy 3 - - - -
01/12:00pm 14.8 NW 19 28 1007.6 - 0.2 Rain Cloudy 3 - - - -
01/11:44am 15.9 NW 21 30 1007.7 - 0.0 - Partly cloudy 5 - - - -
01/11:30am 16.5 NW 20 27 1007.9 - 0.0 - Partly cloudy 10 - - - -
01/11:01am 16.8 NW 20 30 1008.4 - 0.0 - Partly cloudy 10 - - - -
01/11:00am 16.7 NW 21 30 1008.4 - 0.0 - Partly cloudy 10 - - - -
01/10:46am 17.3 NW 16 26 1008.4 - 0.0 - Partly cloudy 10 - - - -
01/10:30am 16.4 NW 15 22 1008.7 - 0.0 - Partly cloudy 10 - - - -
01/10:00am 16.5 NW 15 26 1009.0 - 0.0 - Partly cloudy 10 - - - -
01/09:57am 16.4 NW 15 25 1008.8 - 0.0 - Partly cloudy 10 - - - -
01/09:30am 16.4 NW 18 26 1009.2 - 0.0 - Partly cloudy 10 - - - -
01/09:00am 16.2 NW 16 25 1009.5 - 0.8 - Cloudy 10 - - - -
01/08:33am 16.1 NW 17 27 1009.8 - 0.8 - Partly cloudy 10 - - - -
01/08:30am 16.2 NW 18 27 1009.8 - 0.8 - Partly cloudy 10 - - - -
01/08:16am 16.1 NW 16 27 1009.7 - 0.8 - Partly cloudy 10 - - - -
01/08:00am 16.1 NW 15 22 1009.9 - 0.8 - Partly cloudy 10 - - - -
01/07:31am 16.2 NW 15 26 1010.0 - 0.8 - Partly cloudy 10 - - - -
01/07:30am 16.0 NW 15 22 1010.0 - 0.8 - Partly cloudy 10 - - - -
01/07:09am 16.1 NW 15 27 1009.8 - 0.8 - Partly cloudy 10 - - - -
01/07:00am 15.9 NW 14 22 1009.9 - 0.8 - Partly cloudy 10 - - - -
01/06:30am 15.9 NW 17 23 1010.0 - 0.8 - Partly cloudy 10 - - - -
01/06:00am 15.3 NW 15 22 1010.4 - 0.8 - Cloudy 10 - - - -
01/05:33am 15.5 NW 16 26 1010.5 - 0.8 - Partly cloudy 10 - - - -
01/05:30am 15.5 NW 17 26 1010.5 - 0.8 - Partly cloudy 10 - - - -
01/05:19am 15.5 NW 16 25 1010.5 - 0.8 - Partly cloudy 10 - - - -
01/05:00am 15.3 NW 11 15 1010.6 - 0.8 - Partly cloudy 10 - - - -
01/04:39am 15.3 NW 15 25 1010.7 - 0.8 - Partly cloudy 10 - - - -
01/04:30am 15.8 NW 12 18 1010.6 - 0.4 - Partly cloudy 10 - - - -
01/04:05am 15.8 NNW 15 28 1010.8 - 0.4 - Partly cloudy 10 - - - -
01/04:00am 15.8 NNW 15 24 1010.8 - 0.4 - Partly cloudy 10 - - - -
01/03:32am 15.7 NNW 15 25 1011.1 - 0.4 - Partly cloudy 10 - - - -
01/03:30am 15.7 NNW 15 21 1011.2 - 0.4 - Partly cloudy 10 - - - -
01/03:00am 15.6 NNW 15 23 1011.6 - 0.4 - Cloudy 10 - - - -
01/02:30am 15.1 NNW 12 19 1012.0 - 0.4 - Partly cloudy 10 - - - -
01/02:00am 14.8 NW 10 17 1012.4 - 0.4 - Partly cloudy 10 - - - -
01/01:47am 14.3 NW 11 16 1012.7 - 0.4 - Partly cloudy 7 - - - -
01/01:30am 14.1 NW 11 17 1013.1 - 0.4 - Partly cloudy 5 - - - -
01/01:00am 13.8 NW 13 19 1013.6 - 0.0 - Partly cloudy 5 - - - -
01/12:58am 14.0 NW 14 19 1013.6 - 0.0 - Partly cloudy 5 - - - -
01/12:30am 12.9 SW 4 6 1013.9 - 0.0 - Cloudy 10 - - - -
01/12:00am 13.1 WNW 6 10 1014.3 - 0.0 - Cloudy 10 - - - -
 
Date/Time
EST
Temp
°C
Wind Pressure Rain since
9am
mm
Weather Cloud Vis
km
Sea
Height
m
Swell
Dir  Spd
kts
Gust
kts
hPa Trend Height
m
Period
s
Dir
30/11:30pm 11.9 SW 5 7 1014.8 - 0.0 - Partly cloudy 8 - - - -
30/11:00pm 11.9 WSW 4 5 1015.1 - 0.0 - Partly cloudy 10 - - - -
30/10:30pm 12.0 SSW 2 4 1015.5 - 0.0 - Partly cloudy 10 - - - -
30/10:00pm 11.9 WSW 3 4 1015.8 - 0.0 - Partly cloudy 10 - - - -
30/09:30pm 12.0 CALM 0 0 1015.9 - 0.0 - Cloudy 10 - - - -
30/09:00pm 12.2 SSW 1 4 1016.2 - 0.0 - Mostly cloudy 10 - - - -
30/08:30pm 12.1 CALM 0 0 1016.4 - 0.0 - Partly cloudy 10 - - - -
30/08:00pm 12.5 SW 1 3 1016.7 - 0.0 - Partly cloudy 10 - - - -
30/07:30pm 12.7 SSW 2 3 1016.8 - 0.0 - Partly cloudy 10 - - - -
30/07:00pm 12.9 SSW 3 4 1017.0 - 0.0 - Cloudy 10 - - - -
30/06:30pm 13.3 W 3 4 1017.3 - 0.0 - Partly cloudy 10 - - - -
30/06:00pm 13.6 W 4 5 1017.4 - 0.0 - Cloudy 10 - - - -
30/05:30pm 13.9 W 4 5 1017.2 - 0.0 - Cloudy 10 - - - -
30/05:00pm 14.1 WNW 5 7 1017.2 - 0.0 - Partly cloudy 10 - - - -
30/04:30pm 14.5 WNW 6 8 1017.3 - 0.0 - Cloudy 10 - - - -
30/04:00pm 14.4 NW 9 10 1017.5 - 0.0 - Partly cloudy 10 - - - -
30/03:31pm 14.6 WNW 10 14 1017.6 - 0.0 - Partly cloudy 10 - - - -
30/03:30pm 14.5 WNW 10 14 1017.6 - 0.0 - Partly cloudy 10 - - - -
30/03:12pm 12.9 NW 15 22 1018.0 - 0.0 - Partly cloudy 5 - - - -
30/03:11pm 13.1 NW 15 22 1018.0 - 0.0 - Partly cloudy 6 - - - -
30/03:00pm 14.6 NW 7 9 1017.9 - 0.0 - Mostly cloudy 10 - - - -
30/02:50pm 14.6 NW 6 9 1018.0 - 0.0 - Partly cloudy 10 - - - -
30/02:34pm 13.8 NNW 9 14 1018.1 - 0.0 - Partly cloudy 5 - - - -
30/02:30pm 13.9 N 9 14 1018.2 - 0.0 - Partly cloudy 10 - - - -
30/02:00pm 15.0 NNW 8 11 1018.3 - 0.0 - Partly cloudy 10 - - - -
30/01:30pm 15.5 NW 8 12 1018.5 - 0.0 - Partly cloudy 10 - - - -
30/01:00pm 15.4 N 9 12 1018.8 - 0.0 - Partly cloudy 10 - - - -
30/12:30pm 16.0 NW 6 10 1019.4 - 0.0 - Partly cloudy 10 - - - -
30/12:00pm 13.9 NW 4 6 1020.1 - 0.0 - Cloudy 10 - - - -
30/11:30am 14.0 WSW 5 7 1020.5 - 0.0 - Cloudy 10 - - - -
30/11:00am 13.9 W 8 11 1020.8 - 0.0 - Cloudy 10 - - - -
30/10:30am 13.7 W 7 9 1021.0 - 0.0 - Cloudy 10 - - - -
30/10:00am 13.5 W 10 13 1021.2 - 0.0 - Cloudy 10 - - - -
30/09:30am 12.9 W 10 13 1021.4 - 0.0 - Partly cloudy 10 - - - -
30/09:00am 12.6 WNW 5 6 1021.6 - 0.0 - Partly cloudy 10 - - - -
30/08:44am 11.6 NNW 3 5 1021.7 - 0.0 - Partly cloudy 10 - - - -
30/08:30am 10.4 WNW 4 5 1021.6 - 0.0 - Partly cloudy 10 - - - -
30/08:00am 9.1 WNW 4 5 1021.6 - 0.0 - Cloudy 10 - - - -
30/07:30am 8.0 W 4 5 1021.2 - 0.0 - Cloudy 10 - - - -
30/07:00am 7.9 W 5 6 1021.0 - 0.0 - Partly cloudy 10 - - - -
30/06:30am 6.6 WNW 5 6 1021.0 - 0.0 - Partly cloudy 10 - - - -
30/06:20am 6.4 WNW 4 6 1020.9 - 0.0 - Partly cloudy 10 - - - -
30/06:16am 6.4 WNW 4 5 1020.8 - 0.0 - Partly cloudy 10 - - - -
30/06:00am 7.1 WNW 4 5 1020.8 - 0.0 - Cloudy 10 - - - -
30/05:34am 7.5 WNW 4 5 1020.8 - 0.0 - Partly cloudy 10 - - - -
30/05:30am 7.4 WNW 4 5 1020.8 - 0.0 - Partly cloudy 10 - - - -
30/05:00am 7.3 WNW 4 5 1020.7 - 0.0 - Partly cloudy 10 - - - -
30/04:53am 7.6 WNW 5 5 1020.7 - 0.0 - Partly cloudy 10 - - - -
30/04:30am 7.7 WNW 5 6 1020.7 - 0.0 - Partly cloudy 10 - - - -
30/04:00am 7.6 W 5 5 1020.6 - 0.0 - Cloudy 10 - - - -
30/03:30am 7.7 W 4 6 1020.8 - 0.0 - Partly cloudy 10 - - - -
30/03:15am 7.3 WNW 6 6 1020.8 - 0.0 - Partly cloudy 10 - - - -
30/03:00am 5.3 W 5 7 1020.8 - 0.0 - Partly cloudy 10 - - - -
30/02:30am 5.2 WNW 5 6 1021.0 - 0.0 - - 10 - - - -
30/02:00am 4.9 W 6 7 1021.0 - 0.0 - - 10 - - - -
30/01:30am 5.4 WNW 5 6 1021.1 - 0.0 - - 10 - - - -
30/01:00am 5.9 WNW 5 6 1021.2 - 0.0 - - 10 - - - -
30/12:30am 6.2 WNW 5 7 1021.2 - 0.0 - - 10 - - - -
30/12:00am 5.1 W 5 6 1021.3 - 0.0 - - 10 - - - -
 
Date/Time
EST
Temp
°C
Wind Pressure Rain since
9am
mm
Weather Cloud Vis
km
Sea
Height
m
Swell
Dir  Spd
kts
Gust
kts
hPa Trend Height
m
Period
s
Dir
29/11:30pm 6.8 W 5 6 1021.2 - 0.0 - - 10 - - - -
29/11:00pm 6.9 WNW 7 8 1021.1 - 0.0 - - 10 - - - -
29/10:30pm 7.2 WNW 6 7 1020.9 - 0.0 - - 10 - - - -
29/10:00pm 8.0 WNW 6 7 1020.9 - 0.0 - - 10 - - - -
29/09:30pm 9.7 W 6 7 1020.6 - 0.0 - - 10 - - - -
29/09:00pm 9.9 WNW 7 8 1020.5 - 0.0 - - 10 - - - -
29/08:30pm 9.9 WNW 7 8 1020.4 - 0.0 - - 10 - - - -
29/08:00pm 10.2 W 7 8 1020.4 - 0.0 - - 10 - - - -
29/07:30pm 10.9 W 8 9 1020.5 - 0.0 - - 10 - - - -
29/07:00pm 11.9 W 7 8 1020.3 - 0.0 - - 10 - - - -
29/06:30pm 12.1 WSW 8 10 1019.8 - 0.0 - - 10 - - - -
29/06:00pm 12.5 W 8 10 1019.6 - 0.0 - - 10 - - - -
29/05:30pm 14.1 WSW 9 13 1019.1 - 0.0 - - 10 - - - -
29/05:00pm 15.4 SW 8 15 1018.8 - 0.0 - - 10 - - - -
29/04:30pm 16.5 SW 9 13 1018.5 - 0.0 - - 10 - - - -
29/04:00pm 17.0 SSW 10 13 1018.3 - 0.0 - - 10 - - - -
29/03:30pm 17.8 S 7 9 1018.1 - 0.0 - Partly cloudy 10 - - - -
29/03:00pm 18.0 SSW 8 12 1017.9 - 0.0 - Mostly clear 10 - - - -
29/02:30pm 18.3 SW 9 12 1017.6 - 0.0 - Partly cloudy 10 - - - -
29/02:00pm 18.1 SW 9 13 1017.6 - 0.0 - Partly cloudy 10 - - - -
29/01:30pm 17.8 SSW 9 13 1017.6 - 0.0 - Partly cloudy 10 - - - -
29/01:00pm 18.3 SW 12 15 1017.7 - 0.0 - Partly cloudy 10 - - - -
29/12:30pm 17.5 SSW 9 13 1017.7 - 0.0 - Partly cloudy 10 - - - -
29/12:00pm 17.5 SW 10 15 1017.8 - 0.0 - Mostly clear 10 - - - -
29/11:30am 17.8 WSW 10 17 1018.0 - 0.0 - Partly cloudy 10 - - - -
29/11:00am 16.2 SW 15 20 1017.8 - 0.0 - Partly cloudy 10 - - - -
29/10:30am 17.0 WSW 15 21 1017.3 - 0.0 - Partly cloudy 10 - - - -
29/10:00am 15.5 W 16 21 1017.5 - 0.0 - Partly cloudy 10 - - - -
29/09:30am 15.2 WSW 13 18 1017.7 - 0.0 - - 10 - - - -
29/09:00am 14.8 WSW 12 17 1017.8 - 0.0 - Mostly cloudy 10 - - - -
29/08:30am 14.1 W 11 13 1017.7 - 0.0 - - 10 - - - -
29/08:00am 13.2 W 11 14 1017.2 - 0.0 - Partly cloudy 10 - - - -
29/07:30am 12.2 W 9 12 1016.7 - 0.0 - Partly cloudy 10 - - - -
29/07:00am 11.5 W 9 12 1016.2 - 0.0 - - 10 - - - -
29/06:30am 11.6 W 11 15 1015.8 - 0.0 - Partly cloudy 10 - - - -
29/06:00am 11.6 W 9 12 1015.4 - 0.0 - - 10 - - - -
29/05:30am 12.7 W 13 16 1015.2 - 0.0 - Partly cloudy 10 - - - -
29/05:00am 12.3 W 13 17 1015.1 - 0.0 - - 10 - - - -
29/04:30am 12.7 W 14 17 1014.6 - 0.0 - Partly cloudy 10 - - - -
29/04:00am 12.6 W 11 15 1014.6 - 0.0 - - 10 - - - -
29/03:30am 13.2 W 11 16 1014.6 - 0.0 - - 10 - - - -
29/03:00am 13.4 W 12 18 1014.6 - 0.0 - Mostly clear 10 - - - -
29/02:30am 13.5 WNW 9 13 1014.7 - 0.0 - Partly cloudy 10 - - - -
29/02:00am 13.1 WNW 8 10 1014.8 - 0.0 - Partly cloudy 10 - - - -
29/01:30am 13.5 WNW 10 14 1014.7 - 0.0 - Partly cloudy 10 - - - -
29/01:00am 13.7 W 11 15 1014.9 - 0.0 - Partly cloudy 10 - - - -
29/12:54am 13.7 W 9 15 1014.9 - 0.0 - Partly cloudy 10 - - - -
29/12:33am 13.8 WNW 7 15 1015.0 - 0.0 - Cloudy 10 - - - -
29/12:31am 13.8 WNW 9 19 1015.0 - 0.0 - Cloudy 10 - - - -
29/12:30am 13.9 WNW 10 19 1015.0 - 0.0 - Cloudy 10 - - - -
29/12:07am 14.1 WNW 9 14 1015.2 - 0.0 - Cloudy 10 - - - -
29/12:00am 14.0 WNW 9 13 1015.2 - 0.0 - Mostly cloudy 10 - - - -
 
Date/Time
EST
Temp
°C
Wind Pressure Rain since
9am
mm
Weather Cloud Vis
km
Sea
Height
m
Swell
Dir  Spd
kts
Gust
kts
hPa Trend Height
m
Period
s
Dir
28/11:30pm 13.5 WNW 7 10 1015.2 - 0.0 - Cloudy 10 - - - -
28/11:03pm 13.4 WNW 9 11 1015.3 - 0.0 - Partly cloudy 10 - - - -
28/11:00pm 13.4 WNW 9 13 1015.3 - 0.0 - Partly cloudy 10 - - - -
28/10:40pm 13.7 WNW 11 15 1015.5 - 0.0 - Partly cloudy 10 - - - -
28/10:30pm 13.9 WNW 11 15 1015.5 - 0.0 - Partly cloudy 10 - - - -
28/10:00pm 13.8 WNW 14 21 1015.6 - 0.0 - Partly cloudy 10 - - - -
28/09:30pm 13.7 W 9 14 1015.7 - 0.0 - Partly cloudy 10 - - - -
28/09:00pm 14.1 W 11 15 1015.7 - 0.0 - Cloudy 10 - - - -
28/08:58pm 14.1 W 11 15 1015.7 - 0.0 - Partly cloudy 10 - - - -
28/08:32pm 14.0 W 9 13 1015.8 - 0.0 - Partly cloudy 10 - - - -
28/08:30pm 14.0 W 10 15 1015.8 - 0.0 - Cloudy 10 - - - -
28/08:00pm 14.3 W 12 20 1015.7 - 0.0 - Partly cloudy 10 - - - -
28/07:30pm 13.8 W 10 14 1015.6 - 0.0 - Partly cloudy 10 - - - -
28/07:00pm 14.3 WNW 11 15 1015.7 - 0.0 - Partly cloudy 10 - - - -
28/06:30pm 14.4 W 13 18 1015.6 - 0.0 - Partly cloudy 10 - - - -
28/06:00pm 14.4 W 13 17 1015.3 - 0.0 - Cloudy 10 - - - -
28/05:30pm 14.7 WNW 11 17 1015.5 - 0.0 - Partly cloudy 10 - - - -
28/05:00pm 14.9 WNW 11 16 1015.3 - 0.0 - Partly cloudy 10 - - - -
28/04:30pm 15.6 W 14 20 1015.4 - 0.0 - Partly cloudy 10 - - - -

Other Formats:

Comma delimited format used in spreadsheet applications
http://www.bom.gov.au/fwo/IDV60701/IDV60701.95957.axf

JavaScript Object Notation format (JSON) in row-major order
http://www.bom.gov.au/fwo/IDV60701/IDV60701.95957.json